METAR Data

Data at: 0623 UTC 28 Sep 2022

METAR for:KFMH (Otis ANGB, MA, US)
Text:KFMH 280556Z 25005KT 10SM CLR 13/09 A2996
Temperature: 13.0°C ( 55°F)
Dewpoint: 9.0°C ( 48°F) [RH = 77%]
Pressure (altimeter):29.96 inches Hg (1014.6 mb)
Winds:from the WSW (250 degrees) at 6 MPH (5 knots; 2.6 m/s)
Visibility:10 or more sm (16+ km)
Ceiling:at least 12,000 feet AGL
Clouds:sky clear below 12,000 feet AGL